sensor_id;sensor_type;location;lat;lon;timestamp;temperature;humidity
41953;DHT22;63613;28.200;112.870;2023-07-28T00:01:12;31.90;47.10
41953;DHT22;63613;28.200;112.870;2023-07-28T00:03:39;31.90;46.60
41953;DHT22;63613;28.200;112.870;2023-07-28T00:06:26;31.90;46.20
41953;DHT22;63613;28.200;112.870;2023-07-28T00:08:53;31.90;45.90
41953;DHT22;63613;28.200;112.870;2023-07-28T00:11:20;31.90;46.00
41953;DHT22;63613;28.200;112.870;2023-07-28T00:13:47;32.00;46.20
41953;DHT22;63613;28.200;112.870;2023-07-28T00:16:14;31.90;46.60
41953;DHT22;63613;28.200;112.870;2023-07-28T00:18:41;31.90;46.80
41953;DHT22;63613;28.200;112.870;2023-07-28T00:21:08;31.90;46.90
41953;DHT22;63613;28.200;112.870;2023-07-28T00:23:35;32.00;47.10
41953;DHT22;63613;28.200;112.870;2023-07-28T00:26:02;32.00;47.00
41953;DHT22;63613;28.200;112.870;2023-07-28T00:28:28;32.00;47.00
41953;DHT22;63613;28.200;112.870;2023-07-28T00:30:55;32.00;47.30
41953;DHT22;63613;28.200;112.870;2023-07-28T00:33:42;32.10;47.50
41953;DHT22;63613;28.200;112.870;2023-07-28T00:36:09;32.00;46.00
41953;DHT22;63613;28.200;112.870;2023-07-28T00:38:36;31.80;43.50
41953;DHT22;63613;28.200;112.870;2023-07-28T00:41:02;31.70;46.30
41953;DHT22;63613;28.200;112.870;2023-07-28T00:43:30;31.50;48.30
41953;DHT22;63613;28.200;112.870;2023-07-28T00:45:56;31.30;51.40
41953;DHT22;63613;28.200;112.870;2023-07-28T00:48:24;31.20;55.20
41953;DHT22;63613;28.200;112.870;2023-07-28T00:50:52;31.30;58.10
41953;DHT22;63613;28.200;112.870;2023-07-28T00:53:20;31.40;60.70
41953;DHT22;63613;28.200;112.870;2023-07-28T00:55:51;31.40;63.00
41953;DHT22;63613;28.200;112.870;2023-07-28T00:58:18;31.40;64.80
41953;DHT22;63613;28.200;112.870;2023-07-28T01:00:45;31.40;66.00
41953;DHT22;63613;28.200;112.870;2023-07-28T01:03:33;31.50;66.60
41953;DHT22;63613;28.200;112.870;2023-07-28T01:09:11;31.50;68.00
41953;DHT22;63613;28.200;112.870;2023-07-28T01:11:58;31.50;66.50
41953;DHT22;63613;28.200;112.870;2023-07-28T01:14:26;31.50;63.20
41953;DHT22;63613;28.200;112.870;2023-07-28T01:16:53;31.40;62.90
41953;DHT22;63613;28.200;112.870;2023-07-28T01:19:21;31.40;64.50
41953;DHT22;63613;28.200;112.870;2023-07-28T01:21:59;31.40;64.20
41953;DHT22;63613;28.200;112.870;2023-07-28T01:27:06;31.40;65.70
41953;DHT22;63613;28.200;112.870;2023-07-28T01:29:34;31.30;65.40
41953;DHT22;63613;28.200;112.870;2023-07-28T01:32:01;31.40;65.70
41953;DHT22;63613;28.200;112.870;2023-07-28T01:34:29;31.50;65.40
41953;DHT22;63613;28.200;112.870;2023-07-28T01:36:56;31.50;66.10
41953;DHT22;63613;28.200;112.870;2023-07-28T01:39:23;31.60;66.80
41953;DHT22;63613;28.200;112.870;2023-07-28T01:41:50;31.60;67.20
41953;DHT22;63613;28.200;112.870;2023-07-28T01:44:18;31.60;66.90
41953;DHT22;63613;28.200;112.870;2023-07-28T01:46:45;31.60;67.50
41953;DHT22;63613;28.200;112.870;2023-07-28T01:49:11;31.70;67.80
41953;DHT22;63613;28.200;112.870;2023-07-28T01:51:38;31.70;68.10
41953;DHT22;63613;28.200;112.870;2023-07-28T01:54:07;31.70;68.00
41953;DHT22;63613;28.200;112.870;2023-07-28T01:56:34;31.70;68.80
41953;DHT22;63613;28.200;112.870;2023-07-28T01:59:01;31.70;68.50
41953;DHT22;63613;28.200;112.870;2023-07-28T02:01:27;31.70;68.80
41953;DHT22;63613;28.200;112.870;2023-07-28T02:03:57;31.70;68.70
41953;DHT22;63613;28.200;112.870;2023-07-28T02:06:24;31.70;68.90
41953;DHT22;63613;28.200;112.870;2023-07-28T02:08:51;31.70;68.90
41953;DHT22;63613;28.200;112.870;2023-07-28T02:11:17;31.70;69.10
41953;DHT22;63613;28.200;112.870;2023-07-28T02:13:44;31.80;69.30
41953;DHT22;63613;28.200;112.870;2023-07-28T02:16:11;31.80;69.60
41953;DHT22;63613;28.200;112.870;2023-07-28T02:18:38;31.90;69.60
41953;DHT22;63613;28.200;112.870;2023-07-28T02:21:08;31.90;69.60
41953;DHT22;63613;28.200;112.870;2023-07-28T02:23:35;31.90;69.90
41953;DHT22;63613;28.200;112.870;2023-07-28T02:26:02;31.90;69.40
41953;DHT22;63613;28.200;112.870;2023-07-28T02:28:29;31.90;68.80
41953;DHT22;63613;28.200;112.870;2023-07-28T02:30:56;31.90;68.90
41953;DHT22;63613;28.200;112.870;2023-07-28T02:33:27;31.90;68.50
41953;DHT22;63613;28.200;112.870;2023-07-28T02:35:56;31.90;68.70
41953;DHT22;63613;28.200;112.870;2023-07-28T02:38:23;31.90;69.20
41953;DHT22;63613;28.200;112.870;2023-07-28T02:40:50;31.80;69.00
41953;DHT22;63613;28.200;112.870;2023-07-28T02:43:17;31.90;68.90
41953;DHT22;63613;28.200;112.870;2023-07-28T02:45:48;31.80;69.00
41953;DHT22;63613;28.200;112.870;2023-07-28T02:48:15;31.90;68.90
41953;DHT22;63613;28.200;112.870;2023-07-28T02:51:02;31.80;68.80
41953;DHT22;63613;28.200;112.870;2023-07-28T02:53:28;31.90;69.00
41953;DHT22;63613;28.200;112.870;2023-07-28T02:55:57;31.90;68.60
41953;DHT22;63613;28.200;112.870;2023-07-28T02:58:23;31.90;68.60
41953;DHT22;63613;28.200;112.870;2023-07-28T03:00:52;31.90;68.70
41953;DHT22;63613;28.200;112.870;2023-07-28T03:03:19;31.90;68.90
41953;DHT22;63613;28.200;112.870;2023-07-28T03:05:46;31.90;69.20
41953;DHT22;63613;28.200;112.870;2023-07-28T03:08:13;31.90;68.90
41953;DHT22;63613;28.200;112.870;2023-07-28T03:10:39;31.90;68.60
41953;DHT22;63613;28.200;112.870;2023-07-28T03:13:06;31.90;68.50
41953;DHT22;63613;28.200;112.870;2023-07-28T03:15:33;31.90;68.60
41953;DHT22;63613;28.200;112.870;2023-07-28T03:18:00;31.90;68.50
41953;DHT22;63613;28.200;112.870;2023-07-28T03:20:27;32.00;68.30
41953;DHT22;63613;28.200;112.870;2023-07-28T03:22:53;31.90;68.30
41953;DHT22;63613;28.200;112.870;2023-07-28T03:25:21;32.00;68.40
41953;DHT22;63613;28.200;112.870;2023-07-28T03:27:48;32.00;68.30
41953;DHT22;63613;28.200;112.870;2023-07-28T03:30:15;32.10;68.00
41953;DHT22;63613;28.200;112.870;2023-07-28T03:32:41;32.00;67.50
41953;DHT22;63613;28.200;112.870;2023-07-28T03:35:09;32.00;67.20
41953;DHT22;63613;28.200;112.870;2023-07-28T03:37:35;32.00;66.90
41953;DHT22;63613;28.200;112.870;2023-07-28T03:40:22;32.00;66.80
41953;DHT22;63613;28.200;112.870;2023-07-28T03:42:49;31.90;66.50
41953;DHT22;63613;28.200;112.870;2023-07-28T03:45:36;31.90;66.00
41953;DHT22;63613;28.200;112.870;2023-07-28T03:48:03;31.90;65.30
41953;DHT22;63613;28.200;112.870;2023-07-28T03:50:30;31.80;64.90
41953;DHT22;63613;28.200;112.870;2023-07-28T03:52:59;31.90;65.20
41953;DHT22;63613;28.200;112.870;2023-07-28T03:55:26;31.90;64.60
41953;DHT22;63613;28.200;112.870;2023-07-28T03:57:52;32.00;63.50
41953;DHT22;63613;28.200;112.870;2023-07-28T04:00:19;32.00;63.90
41953;DHT22;63613;28.200;112.870;2023-07-28T04:02:46;32.10;63.80
41953;DHT22;63613;28.200;112.870;2023-07-28T04:05:13;32.10;63.90
41953;DHT22;63613;28.200;112.870;2023-07-28T04:07:40;32.10;64.10
41953;DHT22;63613;28.200;112.870;2023-07-28T04:10:07;32.10;64.30
41953;DHT22;63613;28.200;112.870;2023-07-28T04:12:34;32.20;64.50
41953;DHT22;63613;28.200;112.870;2023-07-28T04:15:01;32.10;64.70
41953;DHT22;63613;28.200;112.870;2023-07-28T04:17:28;32.20;65.00
41953;DHT22;63613;28.200;112.870;2023-07-28T04:19:55;32.20;64.90
41953;DHT22;63613;28.200;112.870;2023-07-28T04:22:22;32.20;65.20
41953;DHT22;63613;28.200;112.870;2023-07-28T04:24:49;32.20;65.40
41953;DHT22;63613;28.200;112.870;2023-07-28T04:27:16;32.20;62.20
41953;DHT22;63613;28.200;112.870;2023-07-28T04:29:43;32.10;63.90
41953;DHT22;63613;28.200;112.870;2023-07-28T04:32:10;32.20;63.20
41953;DHT22;63613;28.200;112.870;2023-07-28T04:34:37;32.20;62.80
41953;DHT22;63613;28.200;112.870;2023-07-28T04:37:04;32.20;62.60
41953;DHT22;63613;28.200;112.870;2023-07-28T04:39:31;32.20;62.10
41953;DHT22;63613;28.200;112.870;2023-07-28T04:41:58;32.20;61.40
41953;DHT22;63613;28.200;112.870;2023-07-28T04:44:28;32.20;60.90
41953;DHT22;63613;28.200;112.870;2023-07-28T04:46:57;32.30;60.50
41953;DHT22;63613;28.200;112.870;2023-07-28T04:49:28;32.30;59.90
41953;DHT22;63613;28.200;112.870;2023-07-28T04:51:55;32.30;55.00
41953;DHT22;63613;28.200;112.870;2023-07-28T04:54:22;32.20;54.40
41953;DHT22;63613;28.200;112.870;2023-07-28T04:56:53;32.30;54.60
41953;DHT22;63613;28.200;112.870;2023-07-28T04:59:20;32.30;55.00
41953;DHT22;63613;28.200;112.870;2023-07-28T05:01:48;32.40;55.30
41953;DHT22;63613;28.200;112.870;2023-07-28T05:04:15;32.40;55.60
41953;DHT22;63613;28.200;112.870;2023-07-28T05:06:41;32.40;56.00
41953;DHT22;63613;28.200;112.870;2023-07-28T05:09:08;32.40;56.40
41953;DHT22;63613;28.200;112.870;2023-07-28T05:11:38;32.60;56.50
41953;DHT22;63613;28.200;112.870;2023-07-28T05:14:05;32.70;55.90
41953;DHT22;63613;28.200;112.870;2023-07-28T05:16:35;32.80;55.90
41953;DHT22;63613;28.200;112.870;2023-07-28T05:19:22;32.90;56.00
41953;DHT22;63613;28.200;112.870;2023-07-28T05:21:48;33.00;55.70
41953;DHT22;63613;28.200;112.870;2023-07-28T05:24:15;33.20;55.00
41953;DHT22;63613;28.200;112.870;2023-07-28T05:27:04;33.30;54.70
41953;DHT22;63613;28.200;112.870;2023-07-28T05:29:31;33.50;54.00
41953;DHT22;63613;28.200;112.870;2023-07-28T05:32:01;33.60;53.00
41953;DHT22;63613;28.200;112.870;2023-07-28T05:34:28;33.70;52.60
41953;DHT22;63613;28.200;112.870;2023-07-28T05:36:55;33.80;51.50
41953;DHT22;63613;28.200;112.870;2023-07-28T05:39:24;33.70;42.30
41953;DHT22;63613;28.200;112.870;2023-07-28T05:41:50;33.50;39.90
41953;DHT22;63613;28.200;112.870;2023-07-28T05:44:17;33.30;39.60
41953;DHT22;63613;28.200;112.870;2023-07-28T05:46:44;33.40;40.60
41953;DHT22;63613;28.200;112.870;2023-07-28T05:49:12;33.50;41.70
41953;DHT22;63613;28.200;112.870;2023-07-28T05:51:40;33.60;42.40
41953;DHT22;63613;28.200;112.870;2023-07-28T05:54:07;33.60;42.40
41953;DHT22;63613;28.200;112.870;2023-07-28T05:56:33;33.70;42.60
41953;DHT22;63613;28.200;112.870;2023-07-28T05:59:02;33.70;43.00
41953;DHT22;63613;28.200;112.870;2023-07-28T06:01:29;33.60;42.90
41953;DHT22;63613;28.200;112.870;2023-07-28T06:03:56;33.60;42.60
41953;DHT22;63613;28.200;112.870;2023-07-28T06:06:25;33.60;42.60
41953;DHT22;63613;28.200;112.870;2023-07-28T06:08:53;33.70;42.70
41953;DHT22;63613;28.200;112.870;2023-07-28T06:11:21;33.60;42.70
41953;DHT22;63613;28.200;112.870;2023-07-28T06:13:49;33.50;42.70
41953;DHT22;63613;28.200;112.870;2023-07-28T06:16:16;33.40;42.60
41953;DHT22;63613;28.200;112.870;2023-07-28T06:18:43;33.40;42.00
41953;DHT22;63613;28.200;112.870;2023-07-28T06:21:09;33.40;41.40
41953;DHT22;63613;28.200;112.870;2023-07-28T06:23:56;33.30;41.30
41953;DHT22;63613;28.200;112.870;2023-07-28T06:26:24;33.30;40.40
41953;DHT22;63613;28.200;112.870;2023-07-28T06:28:55;33.40;40.60
41953;DHT22;63613;28.200;112.870;2023-07-28T06:31:22;33.40;40.80
41953;DHT22;63613;28.200;112.870;2023-07-28T06:33:49;33.30;41.00
41953;DHT22;63613;28.200;112.870;2023-07-28T06:36:16;33.30;41.30
41953;DHT22;63613;28.200;112.870;2023-07-28T06:38:44;33.20;40.70
41953;DHT22;63613;28.200;112.870;2023-07-28T06:41:14;33.20;40.70
41953;DHT22;63613;28.200;112.870;2023-07-28T06:43:41;33.20;39.80
41953;DHT22;63613;28.200;112.870;2023-07-28T06:46:09;33.00;40.50
41953;DHT22;63613;28.200;112.870;2023-07-28T06:48:36;33.10;40.80
41953;DHT22;63613;28.200;112.870;2023-07-28T06:51:03;33.20;41.50
41953;DHT22;63613;28.200;112.870;2023-07-28T06:53:29;33.30;41.80
41953;DHT22;63613;28.200;112.870;2023-07-28T06:55:58;33.40;42.10
41953;DHT22;63613;28.200;112.870;2023-07-28T06:58:25;33.40;42.50
41953;DHT22;63613;28.200;112.870;2023-07-28T07:00:52;33.50;42.60
41953;DHT22;63613;28.200;112.870;2023-07-28T07:03:22;33.50;43.00
41953;DHT22;63613;28.200;112.870;2023-07-28T07:05:50;33.70;42.80
41953;DHT22;63613;28.200;112.870;2023-07-28T07:08:19;33.80;42.80
41953;DHT22;63613;28.200;112.870;2023-07-28T07:10:49;33.80;43.60
41953;DHT22;63613;28.200;112.870;2023-07-28T07:13:37;33.90;45.60
41953;DHT22;63613;28.200;112.870;2023-07-28T07:16:12;33.90;42.90
41953;DHT22;63613;28.200;112.870;2023-07-28T07:18:43;33.90;43.80
41953;DHT22;63613;28.200;112.870;2023-07-28T07:21:10;34.00;44.40
41953;DHT22;63613;28.200;112.870;2023-07-28T07:23:38;34.10;46.00
41953;DHT22;63613;28.200;112.870;2023-07-28T07:26:05;34.10;44.50
41953;DHT22;63613;28.200;112.870;2023-07-28T07:28:32;34.20;42.80
41953;DHT22;63613;28.200;112.870;2023-07-28T07:31:01;34.30;42.20
41953;DHT22;63613;28.200;112.870;2023-07-28T07:33:31;34.40;42.10
41953;DHT22;63613;28.200;112.870;2023-07-28T07:35:59;34.40;43.90
41953;DHT22;63613;28.200;112.870;2023-07-28T07:38:26;34.50;45.50
41953;DHT22;63613;28.200;112.870;2023-07-28T07:40:53;34.40;42.50
41953;DHT22;63613;28.200;112.870;2023-07-28T07:43:20;34.40;41.40
41953;DHT22;63613;28.200;112.870;2023-07-28T07:45:50;34.40;40.80
41953;DHT22;63613;28.200;112.870;2023-07-28T07:48:20;34.30;39.90
41953;DHT22;63613;28.200;112.870;2023-07-28T07:50:47;34.30;39.20
41953;DHT22;63613;28.200;112.870;2023-07-28T07:53:18;34.30;38.80
41953;DHT22;63613;28.200;112.870;2023-07-28T07:55:45;34.20;38.20
41953;DHT22;63613;28.200;112.870;2023-07-28T07:58:12;34.20;38.00
41953;DHT22;63613;28.200;112.870;2023-07-28T08:00:40;34.20;37.80
41953;DHT22;63613;28.200;112.870;2023-07-28T08:03:07;34.20;37.70
41953;DHT22;63613;28.200;112.870;2023-07-28T08:05:34;34.10;37.60
41953;DHT22;63613;28.200;112.870;2023-07-28T08:08:03;34.00;37.20
41953;DHT22;63613;28.200;112.870;2023-07-28T08:10:33;33.90;36.90
41953;DHT22;63613;28.200;112.870;2023-07-28T08:13:00;33.90;36.70
41953;DHT22;63613;28.200;112.870;2023-07-28T08:15:30;33.80;36.60
41953;DHT22;63613;28.200;112.870;2023-07-28T08:17:58;33.80;36.60
41953;DHT22;63613;28.200;112.870;2023-07-28T08:20:28;33.70;36.60
41953;DHT22;63613;28.200;112.870;2023-07-28T08:23:16;33.70;36.70
41953;DHT22;63613;28.200;112.870;2023-07-28T08:25:45;33.70;36.50
41953;DHT22;63613;28.200;112.870;2023-07-28T08:28:12;33.70;36.50
41953;DHT22;63613;28.200;112.870;2023-07-28T08:30:38;33.70;36.30
41953;DHT22;63613;28.200;112.870;2023-07-28T08:33:05;33.70;36.30
41953;DHT22;63613;28.200;112.870;2023-07-28T08:35:53;33.60;36.20
41953;DHT22;63613;28.200;112.870;2023-07-28T08:38:20;33.60;36.20
41953;DHT22;63613;28.200;112.870;2023-07-28T08:40:46;33.50;36.10
41953;DHT22;63613;28.200;112.870;2023-07-28T08:43:13;33.50;36.00
41953;DHT22;63613;28.200;112.870;2023-07-28T08:45:42;33.50;36.00
41953;DHT22;63613;28.200;112.870;2023-07-28T08:48:12;33.40;36.10
41953;DHT22;63613;28.200;112.870;2023-07-28T08:50:39;33.40;36.10
41953;DHT22;63613;28.200;112.870;2023-07-28T08:53:07;33.40;36.00
41953;DHT22;63613;28.200;112.870;2023-07-28T08:55:35;33.30;36.10
41953;DHT22;63613;28.200;112.870;2023-07-28T08:58:20;33.30;36.10
41953;DHT22;63613;28.200;112.870;2023-07-28T09:00:53;33.30;36.00
41953;DHT22;63613;28.200;112.870;2023-07-28T09:03:22;33.20;36.00
41953;DHT22;63613;28.200;112.870;2023-07-28T09:05:49;33.20;36.00
41953;DHT22;63613;28.200;112.870;2023-07-28T09:08:16;33.20;36.00
41953;DHT22;63613;28.200;112.870;2023-07-28T09:10:48;33.20;36.00
41953;DHT22;63613;28.200;112.870;2023-07-28T09:13:17;33.20;36.10
41953;DHT22;63613;28.200;112.870;2023-07-28T09:15:47;33.20;36.10
41953;DHT22;63613;28.200;112.870;2023-07-28T09:18:16;33.20;36.00
41953;DHT22;63613;28.200;112.870;2023-07-28T09:20:44;33.10;36.10
41953;DHT22;63613;28.200;112.870;2023-07-28T09:23:13;33.10;36.00
41953;DHT22;63613;28.200;112.870;2023-07-28T09:25:42;33.10;36.00
41953;DHT22;63613;28.200;112.870;2023-07-28T09:28:09;33.00;35.90
41953;DHT22;63613;28.200;112.870;2023-07-28T09:30:48;33.00;35.90
41953;DHT22;63613;28.200;112.870;2023-07-28T09:33:32;33.00;35.90
41953;DHT22;63613;28.200;112.870;2023-07-28T09:36:10;32.90;35.90
41953;DHT22;63613;28.200;112.870;2023-07-28T09:38:42;32.70;35.50
41953;DHT22;63613;28.200;112.870;2023-07-28T09:41:13;32.60;36.70
41953;DHT22;63613;28.200;112.870;2023-07-28T09:43:41;32.40;37.60
41953;DHT22;63613;28.200;112.870;2023-07-28T09:46:10;32.20;37.60
41953;DHT22;63613;28.200;112.870;2023-07-28T09:48:45;32.20;37.00
41953;DHT22;63613;28.200;112.870;2023-07-28T09:51:19;32.20;37.10
41953;DHT22;63613;28.200;112.870;2023-07-28T09:53:53;32.10;37.30
41953;DHT22;63613;28.200;112.870;2023-07-28T09:56:27;32.00;37.40
41953;DHT22;63613;28.200;112.870;2023-07-28T09:59:17;32.10;37.80
41953;DHT22;63613;28.200;112.870;2023-07-28T10:01:45;32.10;38.00
41953;DHT22;63613;28.200;112.870;2023-07-28T10:04:15;32.20;38.00
41953;DHT22;63613;28.200;112.870;2023-07-28T10:07:04;32.40;38.90
41953;DHT22;63613;28.200;112.870;2023-07-28T10:09:35;32.70;40.30
41953;DHT22;63613;28.200;112.870;2023-07-28T10:12:26;32.80;40.80
41953;DHT22;63613;28.200;112.870;2023-07-28T10:15:03;32.90;41.60
41953;DHT22;63613;28.200;112.870;2023-07-28T10:17:34;33.10;42.10
41953;DHT22;63613;28.200;112.870;2023-07-28T10:20:29;33.20;42.20
41953;DHT22;63613;28.200;112.870;2023-07-28T10:25:35;33.40;42.60
41953;DHT22;63613;28.200;112.870;2023-07-28T10:30:59;33.70;42.50
41953;DHT22;63613;28.200;112.870;2023-07-28T10:33:36;33.70;42.40
41953;DHT22;63613;28.200;112.870;2023-07-28T10:36:17;33.80;42.50
41953;DHT22;63613;28.200;112.870;2023-07-28T10:38:44;34.00;42.20
41953;DHT22;63613;28.200;112.870;2023-07-28T10:41:17;34.10;42.00
41953;DHT22;63613;28.200;112.870;2023-07-28T10:43:45;34.10;41.00
41953;DHT22;63613;28.200;112.870;2023-07-28T10:46:17;34.10;40.40
41953;DHT22;63613;28.200;112.870;2023-07-28T10:48:49;34.10;39.90
41953;DHT22;63613;28.200;112.870;2023-07-28T10:51:26;34.10;39.60
41953;DHT22;63613;28.200;112.870;2023-07-28T10:54:01;34.10;39.00
41953;DHT22;63613;28.200;112.870;2023-07-28T10:56:31;34.00;38.50
41953;DHT22;63613;28.200;112.870;2023-07-28T10:59:04;34.00;37.80
41953;DHT22;63613;28.200;112.870;2023-07-28T11:01:33;33.90;37.50
41953;DHT22;63613;28.200;112.870;2023-07-28T11:06:44;33.50;34.90
41953;DHT22;63613;28.200;112.870;2023-07-28T11:09:12;33.20;35.90
41953;DHT22;63613;28.200;112.870;2023-07-28T11:11:41;32.90;35.80
41953;DHT22;63613;28.200;112.870;2023-07-28T11:14:09;32.70;36.00
41953;DHT22;63613;28.200;112.870;2023-07-28T11:16:39;32.50;37.10
41953;DHT22;63613;28.200;112.870;2023-07-28T11:19:12;32.40;37.20
41953;DHT22;63613;28.200;112.870;2023-07-28T11:21:43;32.70;37.50
41953;DHT22;63613;28.200;112.870;2023-07-28T11:24:11;32.80;38.10
41953;DHT22;63613;28.200;112.870;2023-07-28T11:26:39;32.80;38.70
41953;DHT22;63613;28.200;112.870;2023-07-28T11:29:06;32.80;39.30
41953;DHT22;63613;28.200;112.870;2023-07-28T11:31:34;32.80;39.60
41953;DHT22;63613;28.200;112.870;2023-07-28T11:34:02;32.70;39.90
41953;DHT22;63613;28.200;112.870;2023-07-28T11:36:32;32.70;40.10
41953;DHT22;63613;28.200;112.870;2023-07-28T11:39:00;32.70;40.40
41953;DHT22;63613;28.200;112.870;2023-07-28T11:41:27;32.70;40.70
41953;DHT22;63613;28.200;112.870;2023-07-28T11:43:54;32.70;41.20
41953;DHT22;63613;28.200;112.870;2023-07-28T11:46:38;32.80;41.60
41953;DHT22;63613;28.200;112.870;2023-07-28T11:49:14;32.80;42.10
41953;DHT22;63613;28.200;112.870;2023-07-28T11:51:45;32.80;42.20
41953;DHT22;63613;28.200;112.870;2023-07-28T11:54:13;32.80;42.80
41953;DHT22;63613;28.200;112.870;2023-07-28T11:56:46;32.80;43.90
41953;DHT22;63613;28.200;112.870;2023-07-28T11:59:16;32.90;46.00
41953;DHT22;63613;28.200;112.870;2023-07-28T12:01:56;32.90;48.00
41953;DHT22;63613;28.200;112.870;2023-07-28T12:04:37;33.00;49.70
41953;DHT22;63613;28.200;112.870;2023-07-28T12:07:14;33.00;50.00
41953;DHT22;63613;28.200;112.870;2023-07-28T12:09:54;33.10;50.90
41953;DHT22;63613;28.200;112.870;2023-07-28T12:12:31;33.10;51.50
41953;DHT22;63613;28.200;112.870;2023-07-28T12:15:00;33.20;50.30
41953;DHT22;63613;28.200;112.870;2023-07-28T12:17:31;33.20;50.40
41953;DHT22;63613;28.200;112.870;2023-07-28T12:20:07;33.20;50.80
41953;DHT22;63613;28.200;112.870;2023-07-28T12:22:39;33.20;50.60
41953;DHT22;63613;28.200;112.870;2023-07-28T12:25:07;33.20;50.80
41953;DHT22;63613;28.200;112.870;2023-07-28T12:27:35;33.20;51.20
41953;DHT22;63613;28.200;112.870;2023-07-28T12:30:03;33.20;51.40
41953;DHT22;63613;28.200;112.870;2023-07-28T12:32:30;33.30;51.70
41953;DHT22;63613;28.200;112.870;2023-07-28T12:34:58;33.20;51.30
41953;DHT22;63613;28.200;112.870;2023-07-28T12:37:24;33.20;51.80
41953;DHT22;63613;28.200;112.870;2023-07-28T12:39:52;33.20;51.70
41953;DHT22;63613;28.200;112.870;2023-07-28T12:42:18;33.30;51.50
41953;DHT22;63613;28.200;112.870;2023-07-28T12:44:46;33.20;51.30
41953;DHT22;63613;28.200;112.870;2023-07-28T12:47:13;33.20;51.10
41953;DHT22;63613;28.200;112.870;2023-07-28T12:49:50;33.20;51.00
41953;DHT22;63613;28.200;112.870;2023-07-28T12:52:18;33.20;51.40
41953;DHT22;63613;28.200;112.870;2023-07-28T12:54:44;33.20;51.50
41953;DHT22;63613;28.200;112.870;2023-07-28T12:57:11;33.20;51.60
41953;DHT22;63613;28.200;112.870;2023-07-28T12:59:38;33.10;51.00
41953;DHT22;63613;28.200;112.870;2023-07-28T13:02:06;33.10;51.00
41953;DHT22;63613;28.200;112.870;2023-07-28T13:04:33;33.10;51.10
41953;DHT22;63613;28.200;112.870;2023-07-28T13:07:00;33.00;51.40
41953;DHT22;63613;28.200;112.870;2023-07-28T13:09:46;33.00;50.90
41953;DHT22;63613;28.200;112.870;2023-07-28T13:12:13;32.90;51.30
41953;DHT22;63613;28.200;112.870;2023-07-28T13:14:40;32.90;51.20
41953;DHT22;63613;28.200;112.870;2023-07-28T13:17:07;32.90;51.50
41953;DHT22;63613;28.200;112.870;2023-07-28T13:19:34;32.90;51.10
41953;DHT22;63613;28.200;112.870;2023-07-28T13:22:01;32.90;51.10
41953;DHT22;63613;28.200;112.870;2023-07-28T13:24:28;32.80;50.70
41953;DHT22;63613;28.200;112.870;2023-07-28T13:26:56;32.90;50.40
41953;DHT22;63613;28.200;112.870;2023-07-28T13:29:24;32.80;50.60
41953;DHT22;63613;28.200;112.870;2023-07-28T13:31:56;32.80;51.10
41953;DHT22;63613;28.200;112.870;2023-07-28T13:34:24;32.80;51.30
41953;DHT22;63613;28.200;112.870;2023-07-28T13:36:51;32.70;49.80
41953;DHT22;63613;28.200;112.870;2023-07-28T13:39:20;32.70;50.60
41953;DHT22;63613;28.200;112.870;2023-07-28T13:41:49;32.70;51.30
41953;DHT22;63613;28.200;112.870;2023-07-28T13:44:17;32.70;51.90
41953;DHT22;63613;28.200;112.870;2023-07-28T13:46:49;32.70;51.90
41953;DHT22;63613;28.200;112.870;2023-07-28T13:49:16;32.70;51.80
41953;DHT22;63613;28.200;112.870;2023-07-28T13:51:44;32.70;51.80
41953;DHT22;63613;28.200;112.870;2023-07-28T13:54:11;32.70;51.50
41953;DHT22;63613;28.200;112.870;2023-07-28T13:56:38;32.60;51.70
41953;DHT22;63613;28.200;112.870;2023-07-28T13:59:05;32.60;51.10
41953;DHT22;63613;28.200;112.870;2023-07-28T14:01:31;32.60;51.90
41953;DHT22;63613;28.200;112.870;2023-07-28T14:04:01;32.70;53.30
41953;DHT22;63613;28.200;112.870;2023-07-28T14:06:29;32.60;54.50
41953;DHT22;63613;28.200;112.870;2023-07-28T14:08:56;32.60;55.30
41953;DHT22;63613;28.200;112.870;2023-07-28T14:11:23;32.60;55.10
41953;DHT22;63613;28.200;112.870;2023-07-28T14:13:50;32.50;54.10
41953;DHT22;63613;28.200;112.870;2023-07-28T14:16:17;32.50;53.80
41953;DHT22;63613;28.200;112.870;2023-07-28T14:18:44;32.50;54.30
41953;DHT22;63613;28.200;112.870;2023-07-28T14:21:16;32.50;54.10
41953;DHT22;63613;28.200;112.870;2023-07-28T14:23:43;32.50;53.80
41953;DHT22;63613;28.200;112.870;2023-07-28T14:26:11;32.50;53.90
41953;DHT22;63613;28.200;112.870;2023-07-28T14:28:40;32.40;53.50
41953;DHT22;63613;28.200;112.870;2023-07-28T14:31:11;32.50;53.60
41953;DHT22;63613;28.200;112.870;2023-07-28T14:33:37;32.40;53.50
41953;DHT22;63613;28.200;112.870;2023-07-28T14:36:04;32.40;53.40
41953;DHT22;63613;28.200;112.870;2023-07-28T14:38:35;32.40;53.90
41953;DHT22;63613;28.200;112.870;2023-07-28T14:41:01;32.40;53.90
41953;DHT22;63613;28.200;112.870;2023-07-28T14:43:28;32.30;53.00
41953;DHT22;63613;28.200;112.870;2023-07-28T14:45:56;32.30;51.80
41953;DHT22;63613;28.200;112.870;2023-07-28T14:48:23;32.30;51.70
41953;DHT22;63613;28.200;112.870;2023-07-28T14:50:49;32.30;51.90
41953;DHT22;63613;28.200;112.870;2023-07-28T14:53:39;32.20;51.40
41953;DHT22;63613;28.200;112.870;2023-07-28T14:56:08;32.20;50.70
41953;DHT22;63613;28.200;112.870;2023-07-28T14:58:35;32.20;50.40
41953;DHT22;63613;28.200;112.870;2023-07-28T15:01:05;32.20;49.90
41953;DHT22;63613;28.200;112.870;2023-07-28T15:03:33;32.20;49.90
41953;DHT22;63613;28.200;112.870;2023-07-28T15:06:02;32.20;49.70
41953;DHT22;63613;28.200;112.870;2023-07-28T15:08:35;32.10;49.50
41953;DHT22;63613;28.200;112.870;2023-07-28T15:11:04;32.20;49.80
41953;DHT22;63613;28.200;112.870;2023-07-28T15:13:35;32.10;49.90
41953;DHT22;63613;28.200;112.870;2023-07-28T15:16:02;32.10;49.70
41953;DHT22;63613;28.200;112.870;2023-07-28T15:18:30;32.10;49.40
41953;DHT22;63613;28.200;112.870;2023-07-28T15:21:00;32.10;49.20
41953;DHT22;63613;28.200;112.870;2023-07-28T15:23:28;32.10;49.10
41953;DHT22;63613;28.200;112.870;2023-07-28T15:25:55;32.10;48.30
41953;DHT22;63613;28.200;112.870;2023-07-28T15:28:25;32.00;47.90
41953;DHT22;63613;28.200;112.870;2023-07-28T15:30:53;32.00;47.10